Terminal Aerodrome Forecast
Issued by NWS

Home | Current Version | Previous Version | Text Only | Print | Product List | Glossary On
Versions: 1 2 3 4 5 6 7 8 9 10 11 12 13 14 15 16 17 18 19 20 21 22 23
000
FTUS43 KIND 270808 AAB
TAFLAF
TAF AMD
KLAF 270808Z 2708/2806 32004KT 2SM BR BKN004
     FM271300 03005KT 4SM BR BKN008
     FM271400 04005KT P6SM BKN008
     FM271500 04006KT P6SM SCT010
     FM272300 09004KT P6SM FEW200
      AMD LTD TO CLD VIS AND WIND TIL 271300=

USA.gov is the U.S. government's official web portal to all federal, state and local government web resources and services.